createdAt,value
2022-09-02T00:02:13.922Z,68.54
2022-09-02T00:04:40.974Z,69.18
2022-09-02T00:07:07.949Z,69.28
2022-09-02T00:09:35.232Z,69.08
2022-09-02T00:12:02.362Z,70.08
2022-09-02T00:14:34.802Z,71.75
2022-09-02T00:17:02.543Z,72.31
2022-09-02T00:19:30.663Z,71.97
2022-09-02T00:21:58.708Z,71.16
2022-09-02T00:24:26.465Z,73.53
2022-09-02T00:26:56.900Z,73.46
2022-09-02T00:29:25.865Z,73.55
2022-09-02T00:31:53.868Z,73.77
2022-09-02T00:34:21.252Z,72.56
2022-09-02T00:36:48.218Z,72.22
2022-09-02T00:39:15.392Z,71.35
2022-09-02T00:41:43.484Z,72.43
2022-09-02T00:44:14.268Z,74.38
2022-09-02T00:46:41.635Z,74.34
2022-09-02T00:49:28.984Z,74.58
2022-09-02T00:52:02.119Z,73.30
2022-09-02T00:54:32.970Z,73.58
2022-09-02T00:57:04.043Z,70.91
2022-09-02T00:59:46.826Z,70.33
2022-09-02T01:02:14.360Z,70.81
2022-09-02T01:04:43.281Z,69.21
2022-09-02T01:07:10.364Z,69.66
2022-09-02T01:09:38.083Z,72.32
2022-09-02T01:12:05.640Z,72.88
2022-09-02T01:14:32.760Z,72.60
2022-09-02T01:17:01.674Z,70.81
2022-09-02T01:19:37.272Z,71.03
2022-09-02T01:22:15.408Z,70.61
2022-09-02T01:24:42.495Z,69.26
2022-09-02T01:27:09.685Z,70.66
2022-09-02T01:29:36.622Z,71.48
2022-09-02T01:32:03.797Z,70.71
2022-09-02T01:34:32.002Z,70.33
2022-09-02T01:36:58.919Z,73.58
2022-09-02T01:39:26.433Z,77.11
2022-09-02T01:41:53.403Z,78.00
2022-09-02T01:44:20.728Z,77.02
2022-09-02T01:46:49.966Z,76.41
2022-09-02T01:49:16.994Z,76.18
2022-09-02T01:51:45.048Z,75.47
2022-09-02T01:54:12.261Z,75.01
2022-09-02T01:56:39.412Z,75.01
2022-09-02T01:59:07.987Z,74.19
2022-09-02T02:01:35.838Z,74.43
2022-09-02T02:04:04.904Z,73.72
2022-09-02T02:06:32.683Z,74.17
2022-09-02T02:09:00.023Z,74.19
2022-09-02T02:11:27.825Z,73.16
2022-09-02T02:13:59.220Z,72.70
2022-09-02T02:16:26.448Z,73.00
2022-09-02T02:18:53.560Z,73.03
2022-09-02T02:21:20.750Z,72.33
2022-09-02T02:23:47.858Z,72.24
2022-09-02T02:26:14.869Z,70.83
2022-09-02T02:28:41.896Z,69.66
2022-09-02T02:31:09.570Z,70.73
2022-09-02T02:33:38.513Z,70.21
2022-09-02T02:36:08.135Z,69.03
2022-09-02T02:38:36.592Z,67.56
2022-09-02T02:41:06.559Z,68.45
2022-09-02T02:43:37.224Z,68.25
2022-09-02T02:46:05.762Z,68.63
2022-09-02T02:48:34.489Z,69.43
2022-09-02T02:51:01.686Z,70.54
2022-09-02T02:53:31.364Z,71.77
2022-09-02T02:55:59.754Z,70.63
2022-09-02T02:58:27.121Z,70.37
2022-09-02T03:00:55.417Z,69.75
2022-09-02T03:03:22.791Z,69.21
2022-09-02T03:05:54.607Z,68.57
2022-09-02T03:08:22.676Z,69.16
2022-09-02T03:10:54.257Z,70.06
2022-09-02T03:13:24.289Z,71.13
2022-09-02T03:15:51.674Z,71.57
2022-09-02T03:18:19.695Z,70.87
2022-09-02T03:20:48.829Z,71.16
2022-09-02T03:23:18.146Z,72.00
2022-09-02T03:25:48.549Z,72.47
2022-09-02T03:28:24.898Z,72.33
2022-09-02T03:30:52.328Z,72.08
2022-09-02T03:33:19.390Z,71.08
2022-09-02T03:35:47.163Z,71.79
2022-09-02T03:38:15.452Z,71.92
2022-09-02T03:40:43.271Z,72.21
2022-09-02T03:43:10.254Z,73.21
2022-09-02T03:45:41.725Z,71.99
2022-09-02T03:48:13.253Z,72.92
2022-09-02T03:50:43.956Z,72.59
2022-09-02T03:53:19.539Z,72.42
2022-09-02T03:55:50.865Z,71.82
2022-09-02T03:58:19.913Z,71.76
2022-09-02T04:00:53.769Z,72.77
2022-09-02T04:03:22.771Z,72.82
2022-09-02T04:05:52.461Z,72.02
2022-09-02T04:08:21.078Z,71.83
2022-09-02T04:10:49.314Z,70.95
2022-09-02T04:13:16.737Z,71.25
2022-09-02T04:15:48.225Z,70.79
2022-09-02T04:18:18.018Z,68.98
2022-09-02T04:20:45.344Z,68.33
2022-09-02T04:23:13.112Z,67.29
2022-09-02T04:25:44.098Z,66.53
2022-09-02T04:28:13.278Z,65.86
2022-09-02T04:30:41.882Z,64.54
2022-09-02T04:33:09.768Z,64.31
2022-09-02T04:35:41.389Z,63.83
2022-09-02T04:38:09.660Z,65.06
2022-09-02T04:40:41.703Z,66.07
2022-09-02T04:43:08.800Z,64.37
2022-09-02T04:45:39.569Z,65.18
2022-09-02T04:48:07.189Z,65.44
2022-09-02T04:50:36.548Z,64.32
2022-09-02T04:53:05.530Z,65.09
2022-09-02T04:55:32.711Z,64.73
2022-09-02T04:58:01.036Z,62.41
2022-09-02T05:00:28.358Z,63.03
2022-09-02T05:02:56.062Z,63.19
2022-09-02T05:05:26.126Z,63.39
2022-09-02T05:07:56.664Z,61.83
2022-09-02T05:10:24.118Z,61.65
2022-09-02T05:12:52.444Z,62.43
2022-09-02T05:15:19.505Z,59.78
2022-09-02T05:17:47.904Z,58.94
2022-09-02T05:20:15.696Z,58.72
2022-09-02T05:22:46.312Z,57.61
2022-09-02T05:25:15.302Z,57.39
2022-09-02T05:27:42.275Z,60.85
2022-09-02T05:30:09.536Z,58.96
2022-09-02T05:32:37.893Z,58.68
2022-09-02T05:35:06.585Z,59.35
2022-09-02T05:37:35.719Z,58.89
2022-09-02T05:40:05.724Z,57.91
2022-09-02T05:42:35.715Z,55.47
2022-09-02T05:45:03.464Z,53.29
2022-09-02T05:47:30.443Z,52.29
2022-09-02T05:49:57.341Z,51.04
2022-09-02T05:52:25.722Z,52.82
2022-09-02T05:54:55.235Z,52.95
2022-09-02T05:57:23.727Z,52.74
2022-09-02T06:00:13.634Z,54.44
2022-09-02T06:02:52.552Z,56.18
2022-09-02T06:05:33.944Z,56.78
2022-09-02T06:08:13.044Z,55.79
2022-09-02T06:10:43.320Z,55.84
2022-09-02T06:13:12.888Z,54.53
2022-09-02T06:15:46.525Z,54.79
2022-09-02T06:18:15.409Z,56.87
2022-09-02T06:20:46.555Z,56.78
2022-09-02T06:23:15.310Z,58.91
2022-09-02T06:25:45.543Z,57.16
2022-09-02T06:28:14.246Z,55.44
2022-09-02T06:30:46.155Z,58.93
2022-09-02T06:33:13.283Z,56.57
2022-09-02T06:35:45.235Z,56.27
2022-09-02T06:38:15.184Z,55.51
2022-09-02T06:40:49.027Z,56.41
2022-09-02T06:43:18.342Z,55.90
2022-09-02T06:46:24.337Z,56.47
2022-09-02T06:48:54.443Z,53.06
2022-09-02T06:51:38.922Z,56.23
2022-09-02T06:54:08.696Z,56.42
2022-09-02T06:56:38.799Z,55.58
2022-09-02T06:59:07.921Z,56.50
2022-09-02T07:01:42.866Z,56.05
2022-09-02T07:04:29.832Z,54.60
2022-09-02T07:06:57.758Z,53.42
2022-09-02T07:09:31.675Z,53.60
2022-09-02T07:12:05.920Z,54.43
2022-09-02T07:14:40.264Z,53.76
2022-09-02T07:17:10.615Z,53.27
2022-09-02T07:19:38.184Z,53.90
2022-09-02T07:22:06.915Z,53.30
2022-09-02T07:24:39.062Z,53.60
2022-09-02T07:27:07.674Z,58.59
2022-09-02T07:29:35.377Z,56.14
2022-09-02T07:32:02.681Z,57.54
2022-09-02T07:34:30.463Z,58.86
2022-09-02T07:37:03.234Z,57.79
2022-09-02T07:39:30.517Z,56.75
2022-09-02T07:41:58.173Z,54.26
2022-09-02T07:44:27.897Z,55.62
2022-09-02T07:46:55.802Z,56.27
2022-09-02T07:49:24.440Z,58.32
2022-09-02T07:51:52.926Z,58.35
2022-09-02T07:54:25.210Z,61.09
2022-09-02T07:56:53.964Z,62.72
2022-09-02T07:59:21.876Z,65.03
2022-09-02T08:01:53.147Z,65.93
2022-09-02T08:04:24.729Z,65.90
2022-09-02T08:06:53.593Z,60.90
2022-09-02T08:09:21.719Z,57.42
2022-09-02T08:11:50.899Z,55.75
2022-09-02T08:14:26.103Z,52.09
2022-09-02T08:16:54.658Z,57.50
2022-09-02T08:19:22.576Z,54.73
2022-09-02T08:21:50.754Z,52.41
2022-09-02T08:24:17.695Z,50.08
2022-09-02T08:26:44.624Z,53.18
2022-09-02T08:29:11.826Z,53.12
2022-09-02T08:31:39.231Z,50.40
2022-09-02T08:34:06.641Z,50.46
2022-09-02T08:36:34.341Z,53.10
2022-09-02T08:39:06.094Z,55.80
2022-09-02T08:41:45.187Z,57.57
2022-09-02T08:44:21.240Z,58.13
2022-09-02T08:46:50.800Z,57.48
2022-09-02T08:49:35.687Z,58.76
2022-09-02T08:52:03.729Z,59.46
2022-09-02T08:54:41.909Z,55.32
2022-09-02T08:57:10.530Z,59.52
2022-09-02T08:59:38.489Z,56.14
2022-09-02T09:02:26.946Z,55.69
2022-09-02T09:05:11.447Z,57.44
2022-09-02T09:08:02.553Z,56.31
2022-09-02T09:10:35.835Z,52.94
2022-09-02T09:13:11.759Z,52.52
2022-09-02T09:15:53.021Z,55.29
2022-09-02T09:18:30.817Z,55.76
2022-09-02T09:20:57.765Z,56.80
2022-09-02T09:23:34.811Z,55.56
2022-09-02T09:26:28.078Z,54.44
2022-09-02T09:28:56.680Z,53.97
2022-09-02T09:31:29.946Z,55.50
2022-09-02T09:34:10.020Z,55.22
2022-09-02T09:36:39.822Z,52.61
2022-09-02T09:39:19.900Z,50.71
2022-09-02T09:41:48.459Z,51.69
2022-09-02T09:44:38.608Z,54.46
2022-09-02T09:47:08.804Z,55.68
2022-09-02T09:49:36.789Z,52.57
2022-09-02T09:52:04.737Z,47.69
2022-09-02T09:54:32.217Z,46.73
2022-09-02T09:57:21.417Z,46.94
2022-09-02T09:59:56.159Z,52.35
2022-09-02T10:02:24.714Z,52.61
2022-09-02T10:05:17.280Z,53.54
2022-09-02T10:07:54.795Z,52.19
2022-09-02T10:10:24.417Z,48.24
2022-09-02T10:12:53.922Z,49.98
2022-09-02T10:15:29.420Z,53.89
2022-09-02T10:18:07.775Z,53.93
2022-09-02T10:21:18.062Z,50.67
2022-09-02T10:24:04.506Z,46.27
2022-09-02T10:26:49.260Z,48.31
2022-09-02T10:29:28.084Z,50.08
2022-09-02T10:32:10.379Z,50.80
2022-09-02T10:35:21.504Z,49.48
2022-09-02T10:38:09.712Z,46.70
2022-09-02T10:40:45.760Z,46.23
2022-09-02T10:43:33.094Z,44.96
2022-09-02T10:46:01.449Z,47.87
2022-09-02T10:48:46.921Z,47.23
2022-09-02T10:51:33.519Z,45.42
2022-09-02T10:54:12.527Z,44.82
2022-09-02T10:56:50.799Z,45.65
2022-09-02T10:59:27.249Z,45.43
2022-09-02T11:02:07.483Z,47.35
2022-09-02T11:04:34.349Z,51.35
2022-09-02T11:07:05.995Z,53.18
2022-09-02T11:09:46.253Z,48.61
2022-09-02T11:12:15.980Z,46.00
2022-09-02T11:15:04.547Z,44.77
2022-09-02T11:17:47.535Z,46.76
2022-09-02T11:20:35.741Z,45.96
2022-09-02T11:23:27.226Z,48.73
2022-09-02T11:26:00.168Z,52.39
2022-09-02T11:28:49.014Z,52.48
2022-09-02T11:31:46.585Z,53.46
2022-09-02T11:34:25.744Z,52.88
2022-09-02T11:36:53.138Z,49.19
2022-09-02T11:39:53.989Z,47.84
2022-09-02T11:42:41.469Z,47.93
2022-09-02T11:45:44.077Z,52.41
2022-09-02T11:48:24.565Z,54.00
2022-09-02T11:51:03.404Z,52.86
2022-09-02T11:53:35.947Z,50.42
2022-09-02T11:56:15.921Z,50.40
2022-09-02T11:58:48.349Z,51.36
2022-09-02T12:01:15.243Z,49.79
2022-09-02T12:04:27.635Z,51.06
2022-09-02T12:06:58.569Z,53.43
2022-09-02T12:09:48.801Z,53.14
2022-09-02T12:12:37.524Z,53.66
2022-09-02T12:15:08.323Z,53.54
2022-09-02T12:17:51.965Z,54.57
2022-09-02T12:20:41.627Z,51.74
2022-09-02T12:23:30.943Z,53.58
2022-09-02T12:26:06.981Z,56.77
2022-09-02T12:28:34.207Z,58.99
2022-09-02T12:31:08.950Z,57.91
2022-09-02T12:33:44.995Z,61.66
2022-09-02T12:36:45.450Z,62.13
2022-09-02T12:39:35.811Z,63.77
2022-09-02T12:42:07.736Z,58.73
2022-09-02T12:45:00.195Z,60.57
2022-09-02T12:47:53.115Z,59.34
2022-09-02T12:50:23.966Z,54.79
2022-09-02T12:52:54.488Z,58.44
2022-09-02T12:55:24.103Z,57.47
2022-09-02T12:57:55.262Z,58.44
2022-09-02T13:00:38.084Z,57.15
2022-09-02T13:03:23.569Z,59.95
2022-09-02T13:06:07.733Z,61.18
2022-09-02T13:08:50.178Z,60.34
2022-09-02T13:11:37.208Z,57.59
2022-09-02T13:14:25.990Z,54.97
2022-09-02T13:16:55.678Z,55.66
2022-09-02T13:19:48.750Z,54.51
2022-09-02T13:22:35.250Z,53.88
2022-09-02T13:25:41.772Z,54.59
2022-09-02T13:28:14.402Z,54.25
2022-09-02T13:31:03.090Z,51.89
2022-09-02T13:33:30.164Z,50.14
2022-09-02T13:36:01.434Z,51.41
2022-09-02T13:38:30.227Z,50.71
2022-09-02T13:40:57.448Z,46.62
2022-09-02T13:43:27.142Z,47.08
2022-09-02T13:46:01.735Z,47.75
2022-09-02T13:48:33.578Z,49.20
2022-09-02T13:51:12.179Z,50.51
2022-09-02T13:53:45.521Z,50.87
2022-09-02T13:56:25.719Z,51.48
2022-09-02T13:58:57.001Z,52.78
2022-09-02T14:01:29.642Z,56.71
2022-09-02T14:03:59.256Z,59.72
2022-09-02T14:06:30.847Z,63.43
2022-09-02T14:09:01.480Z,64.57
2022-09-02T14:11:32.443Z,67.44
2022-09-02T14:13:59.613Z,67.41
2022-09-02T14:16:33.271Z,67.10
2022-09-02T14:19:22.123Z,66.74
2022-09-02T14:21:57.765Z,68.30
2022-09-02T14:24:30.111Z,70.21
2022-09-02T14:26:59.177Z,68.91
2022-09-02T14:29:30.248Z,71.07
2022-09-02T14:32:15.818Z,71.16
2022-09-02T14:34:45.014Z,71.61
2022-09-02T14:37:24.062Z,72.50
2022-09-02T14:40:12.220Z,71.69
2022-09-02T14:42:57.243Z,72.72
2022-09-02T14:45:33.185Z,74.43
2022-09-02T14:48:22.116Z,77.27
2022-09-02T14:50:50.662Z,77.19
2022-09-02T14:53:22.983Z,76.56
2022-09-02T14:55:55.492Z,76.33
2022-09-02T14:58:27.066Z,76.77
2022-09-02T15:01:00.434Z,75.15
2022-09-02T15:03:29.589Z,74.59
2022-09-02T15:05:56.950Z,73.52
2022-09-02T15:08:24.077Z,73.63
2022-09-02T15:10:54.327Z,73.65
2022-09-02T15:13:38.822Z,73.47
2022-09-02T15:16:05.944Z,73.07
2022-09-02T15:18:32.936Z,73.22
2022-09-02T15:21:00.116Z,72.24
2022-09-02T15:23:31.617Z,72.18
2022-09-02T15:26:02.032Z,71.71
2022-09-02T15:28:30.109Z,72.57
2022-09-02T15:31:01.327Z,74.32
2022-09-02T15:33:29.201Z,74.15
2022-09-02T15:36:04.742Z,75.19
2022-09-02T15:38:31.750Z,76.76
2022-09-02T15:41:22.977Z,78.11
2022-09-02T15:43:53.447Z,76.18
2022-09-02T15:46:26.560Z,75.05
2022-09-02T15:48:57.887Z,73.33
2022-09-02T15:51:27.765Z,73.15
2022-09-02T15:53:59.456Z,75.26
2022-09-02T15:56:28.273Z,74.56
2022-09-02T15:59:00.800Z,74.28
2022-09-02T16:01:29.819Z,76.65
2022-09-02T16:03:58.068Z,78.38
2022-09-02T16:06:25.936Z,79.92
2022-09-02T16:08:52.920Z,77.97
2022-09-02T16:11:21.237Z,76.37
2022-09-02T16:13:48.897Z,74.18
2022-09-02T16:16:16.076Z,74.89
2022-09-02T16:18:44.218Z,74.91
2022-09-02T16:21:12.718Z,75.84
2022-09-02T16:23:39.992Z,74.28
2022-09-02T16:26:15.730Z,76.42
2022-09-02T16:28:44.995Z,78.19
2022-09-02T16:31:17.527Z,74.80
2022-09-02T16:34:09.146Z,75.40
2022-09-02T16:36:38.952Z,74.12
2022-09-02T16:39:07.190Z,73.81
2022-09-02T16:41:36.772Z,74.21
2022-09-02T16:44:12.696Z,73.41
2022-09-02T16:46:42.395Z,73.52
2022-09-02T16:49:15.511Z,75.08
2022-09-02T16:51:42.505Z,73.95
2022-09-02T16:54:17.332Z,75.36
2022-09-02T16:56:50.692Z,76.46
2022-09-02T16:59:19.308Z,75.89
2022-09-02T17:01:46.639Z,78.27
2022-09-02T17:04:13.626Z,78.54
2022-09-02T17:06:42.336Z,79.21
2022-09-02T17:09:10.034Z,81.45
2022-09-02T17:11:39.888Z,86.23
2022-09-02T17:14:16.284Z,88.23
2022-09-02T17:16:46.275Z,87.57
2022-09-02T17:19:21.601Z,85.76
2022-09-02T17:21:51.125Z,86.03
2022-09-02T17:24:20.110Z,83.78
2022-09-02T17:26:50.816Z,84.37
2022-09-02T17:29:47.546Z,87.97
2022-09-02T17:32:07.900Z,89.95
2022-09-02T17:34:34.875Z,91.25
2022-09-02T17:37:01.860Z,90.79
2022-09-02T17:39:28.922Z,89.44
2022-09-02T17:41:57.757Z,92.87
2022-09-02T17:44:26.127Z,89.62
2022-09-02T17:46:54.031Z,92.19
2022-09-02T17:49:21.259Z,91.35
2022-09-02T17:51:49.715Z,90.92
2022-09-02T17:54:16.696Z,91.95
2022-09-02T17:57:29.339Z,92.04
2022-09-02T18:00:18.727Z,92.55
2022-09-02T18:03:22.292Z,91.72
2022-09-02T18:06:16.583Z,92.81
2022-09-02T18:08:46.318Z,94.00
2022-09-02T18:11:13.464Z,92.35
2022-09-02T18:14:14.592Z,93.59
2022-09-02T18:16:59.374Z,91.33
2022-09-02T18:19:36.669Z,87.78
2022-09-02T18:22:21.488Z,95.16
2022-09-02T18:24:51.542Z,95.59
2022-09-02T18:27:27.616Z,96.18
2022-09-02T18:29:57.377Z,97.38
2022-09-02T18:32:45.772Z,96.25
2022-09-02T18:35:24.035Z,92.98
2022-09-02T18:37:59.575Z,93.34
2022-09-02T18:40:47.624Z,94.62
2022-09-02T18:43:35.022Z,96.96
2022-09-02T18:46:03.492Z,93.72
2022-09-02T18:48:36.196Z,93.82
2022-09-02T18:51:25.219Z,92.62
2022-09-02T18:53:57.894Z,96.41
2022-09-02T18:56:31.395Z,98.06
2022-09-02T18:59:08.119Z,97.40
2022-09-02T19:01:43.896Z,95.36
2022-09-02T19:04:11.574Z,94.69
2022-09-02T19:06:40.445Z,94.26
2022-09-02T19:09:12.485Z,95.64
2022-09-02T19:11:40.080Z,95.15
2022-09-02T19:14:26.529Z,93.03
2022-09-02T19:16:55.181Z,92.81
2022-09-02T19:19:22.175Z,91.68
2022-09-02T19:21:50.152Z,89.27
2022-09-02T19:24:26.998Z,87.25
2022-09-02T19:27:09.086Z,87.77
2022-09-02T19:29:40.422Z,87.93
2022-09-02T19:32:08.390Z,88.48
2022-09-02T19:34:39.225Z,90.17
2022-09-02T19:37:06.904Z,90.13
2022-09-02T19:39:35.242Z,91.40
2022-09-02T19:42:02.197Z,92.29
2022-09-02T19:44:29.705Z,90.40
2022-09-02T19:47:49.707Z,89.67
2022-09-02T19:49:44.361Z,89.57
2022-09-02T19:52:11.507Z,88.35
2022-09-02T19:54:38.965Z,87.76
2022-09-02T19:57:06.021Z,87.64
2022-09-02T19:59:33.673Z,84.73
2022-09-02T20:02:00.903Z,85.58
2022-09-02T20:04:29.898Z,85.59
2022-09-02T20:06:58.993Z,84.49
2022-09-02T20:09:29.372Z,85.92
2022-09-02T20:11:56.752Z,87.58
2022-09-02T20:14:23.836Z,89.19
2022-09-02T20:17:00.637Z,88.30
2022-09-02T20:19:28.087Z,89.09
2022-09-02T20:21:55.144Z,89.59
2022-09-02T20:24:31.602Z,88.22
2022-09-02T20:27:21.959Z,88.23
2022-09-02T20:30:00.970Z,90.38
2022-09-02T20:32:39.836Z,92.42
2022-09-02T20:35:28.303Z,92.91
2022-09-02T20:38:07.457Z,92.07
2022-09-02T20:40:46.450Z,94.33
2022-09-02T20:43:44.476Z,91.35
2022-09-02T20:46:29.518Z,95.15
2022-09-02T20:49:20.462Z,95.08
2022-09-02T20:52:11.172Z,95.97
2022-09-02T20:54:41.051Z,97.47
2022-09-02T20:57:10.931Z,97.10
2022-09-02T20:59:38.553Z,94.30
2022-09-02T21:02:09.735Z,92.98
2022-09-02T21:04:44.816Z,92.04
2022-09-02T21:07:17.924Z,91.11
2022-09-02T21:10:09.369Z,89.23
2022-09-02T21:12:55.233Z,92.16
2022-09-02T21:15:48.263Z,93.58
2022-09-02T21:18:40.628Z,96.19
2022-09-02T21:21:41.667Z,93.44
2022-09-02T21:24:18.160Z,91.05
2022-09-02T21:26:56.783Z,88.72
2022-09-02T21:29:28.233Z,90.93
2022-09-02T21:32:13.298Z,91.17
2022-09-02T21:34:50.894Z,93.91
2022-09-02T21:37:20.203Z,92.57
2022-09-02T21:39:55.616Z,94.43
2022-09-02T21:42:25.293Z,96.18
2022-09-02T21:45:06.065Z,99.13
2022-09-02T21:47:43.734Z,99.08
2022-09-02T21:50:22.040Z,96.74
2022-09-02T21:52:52.812Z,94.56
2022-09-02T21:55:42.539Z,91.92
2022-09-02T21:58:20.623Z,91.26
2022-09-02T22:01:08.560Z,90.15
2022-09-02T22:03:47.027Z,89.64
2022-09-02T22:06:41.037Z,89.03
2022-09-02T22:09:27.784Z,89.54
2022-09-02T22:12:05.913Z,88.02
2022-09-02T22:14:44.321Z,88.02
2022-09-02T22:17:33.795Z,87.12
2022-09-02T22:20:02.995Z,86.85
2022-09-02T22:22:34.966Z,88.24
2022-09-02T22:25:01.981Z,85.98
2022-09-02T22:27:37.334Z,85.22
2022-09-02T22:30:14.478Z,84.70
2022-09-02T22:32:47.571Z,84.20
2022-09-02T22:35:25.289Z,87.60
2022-09-02T22:37:59.144Z,89.57
2022-09-02T22:40:32.491Z,90.76
2022-09-02T22:43:06.209Z,87.71
2022-09-02T22:46:04.179Z,86.53
2022-09-02T22:48:56.805Z,86.18
2022-09-02T22:52:01.682Z,84.13
2022-09-02T22:54:32.224Z,84.90
2022-09-02T22:57:15.846Z,86.08
2022-09-02T23:00:08.237Z,85.86
2022-09-02T23:03:14.337Z,86.93
2022-09-02T23:06:03.296Z,91.78
2022-09-02T23:08:30.842Z,91.94
2022-09-02T23:11:09.565Z,91.63
2022-09-02T23:13:45.441Z,93.36
2022-09-02T23:16:23.708Z,92.04
2022-09-02T23:19:17.650Z,88.38
2022-09-02T23:22:12.278Z,88.49
2022-09-02T23:24:45.217Z,88.06
2022-09-02T23:27:51.825Z,88.36
2022-09-02T23:30:18.794Z,89.31
2022-09-02T23:33:13.099Z,90.79
2022-09-02T23:36:11.810Z,91.67
2022-09-02T23:38:53.951Z,91.56
2022-09-02T23:41:20.900Z,91.96
2022-09-02T23:43:49.686Z,91.39
2022-09-02T23:46:24.086Z,90.39
2022-09-02T23:49:06.008Z,88.03
2022-09-02T23:51:56.222Z,88.52
2022-09-02T23:54:38.010Z,88.24
2022-09-02T23:57:29.863Z,89.06
